Time;durP1;ratioP1;P1;durP2;ratioP2;P2;SDS_P1;SDS_P2;PMS_P1;PMS_P2;Temp;Humidity;BMP_temperature;BMP_pressure;BME280_temperature;BME280_humidity;BME280_pressure;Samples;Min_cycle;Max_cycle;Signal;HPM_P1;HPM_P2
2023/06/29 00:00:15;;;;;;;6.15;3.88;;;22.60;75.50;;;;;;5033246;28;20592;-63
2023/06/29 00:02:41;;;;;;;5.25;2.92;;;22.60;75.50;;;;;;5032236;28;20042;-63
2023/06/29 00:05:08;;;;;;;6.22;3.08;;;22.60;75.60;;;;;;5033196;28;20455;-63
2023/06/29 00:07:34;;;;;;;6.70;3.88;;;22.50;75.50;;;;;;5013406;28;20033;-63
2023/06/29 00:10:00;;;;;;;6.20;2.92;;;22.50;75.60;;;;;;5033391;28;20075;-63
2023/06/29 00:12:27;;;;;;;5.63;3.42;;;22.50;75.60;;;;;;5033178;28;20463;-63
2023/06/29 00:14:53;;;;;;;6.55;3.97;;;22.40;75.60;;;;;;5033439;28;20116;-63
2023/06/29 00:17:19;;;;;;;8.48;3.35;;;22.40;75.60;;;;;;5031766;28;20136;-63
2023/06/29 00:19:49;;;;;;;3.85;2.72;;;22.30;75.70;;;;;;5033386;28;20067;-63
2023/06/29 00:22:15;;;;;;;5.75;3.83;;;22.30;75.70;;;;;;5032729;28;20443;-63
2023/06/29 00:24:44;;;;;;;4.97;3.72;;;22.20;75.60;;;;;;5015436;28;20095;-63
2023/06/29 00:27:13;;;;;;;6.30;3.42;;;22.20;75.70;;;;;;5031976;28;20091;-63
2023/06/29 00:29:43;;;;;;;3.63;2.80;;;22.10;75.70;;;;;;5033006;28;20025;-63
2023/06/29 00:32:10;;;;;;;6.35;3.25;;;22.10;75.80;;;;;;5032748;28;20514;-63
2023/06/29 00:34:35;;;;;;;5.10;3.45;;;22.00;75.80;;;;;;5032399;28;20480;-63
2023/06/29 00:37:01;;;;;;;7.85;3.55;;;22.00;75.90;;;;;;5030613;28;20386;-61
2023/06/29 00:39:27;;;;;;;5.00;2.85;;;21.90;75.90;;;;;;5026816;28;20037;-63
2023/06/29 00:41:53;;;;;;;7.00;3.83;;;21.90;76.00;;;;;;5030329;28;20052;-63
2023/06/29 00:44:19;;;;;;;6.57;3.13;;;21.80;76.70;;;;;;5029804;28;20033;-63
2023/06/29 00:46:46;;;;;;;5.40;3.63;;;21.80;76.10;;;;;;5027666;28;20079;-63
2023/06/29 00:49:12;;;;;;;4.97;2.55;;;21.70;76.10;;;;;;5032183;28;20026;-63
2023/06/29 00:51:38;;;;;;;7.78;3.13;;;21.70;76.20;;;;;;5015113;28;20384;-64
2023/06/29 00:54:04;;;;;;;7.03;3.70;;;21.70;76.30;;;;;;5032146;28;20025;-64
2023/06/29 00:56:34;;;;;;;7.07;3.30;;;21.60;76.20;;;;;;5031830;28;20029;-64
2023/06/29 00:59:00;;;;;;;5.88;3.55;;;21.60;76.20;;;;;;5031714;28;20037;-63
2023/06/29 01:01:27;;;;;;;5.85;3.70;;;21.60;76.30;;;;;;5031141;28;20099;-63
2023/06/29 01:03:55;;;;;;;4.70;3.03;;;21.50;76.30;;;;;;5009581;28;20073;-63
2023/06/29 01:06:29;;;;;;;4.07;2.60;;;21.50;76.40;;;;;;5008682;28;20038;-63
2023/06/29 01:09:01;;;;;;;5.43;2.95;;;21.50;76.40;;;;;;5010275;28;20103;-63
2023/06/29 01:11:27;;;;;;;6.80;3.88;;;21.50;76.50;;;;;;5012590;28;20026;-64
2023/06/29 01:13:54;;;;;;;6.00;3.67;;;21.40;76.50;;;;;;5012288;28;20038;-64
2023/06/29 01:16:21;;;;;;;4.70;3.13;;;21.40;76.60;;;;;;5011968;28;20033;-63
2023/06/29 01:18:48;;;;;;;5.82;3.53;;;21.40;76.60;;;;;;5011488;28;20030;-63
2023/06/29 01:21:15;;;;;;;5.72;3.40;;;21.40;76.60;;;;;;5010929;28;20044;-64
2023/06/29 01:23:42;;;;;;;8.43;4.18;;;21.30;76.60;;;;;;5012502;28;20026;-63
2023/06/29 01:26:09;;;;;;;6.22;2.67;;;21.30;76.70;;;;;;5012223;28;20029;-64
2023/06/29 01:28:38;;;;;;;7.40;3.50;;;21.30;76.70;;;;;;5011230;28;20030;-62
2023/06/29 01:31:05;;;;;;;5.70;3.67;;;21.30;76.80;;;;;;5011424;28;20050;-63
2023/06/29 01:33:32;;;;;;;5.43;3.50;;;21.30;76.80;;;;;;5010066;28;20022;-64
2023/06/29 01:36:13;;;;;;;6.97;3.90;;;21.30;76.90;;;;;;4993234;28;20033;-64
2023/06/29 01:38:51;;;;;;;5.30;3.23;;;21.30;76.90;;;;;;5012027;28;20025;-64
2023/06/29 01:41:18;;;;;;;8.27;4.28;;;21.20;77.00;;;;;;5009791;28;20488;-64
2023/06/29 01:43:44;;;;;;;5.10;3.10;;;21.20;77.20;;;;;;5010405;28;20117;-64
2023/06/29 01:46:10;;;;;;;6.28;4.32;;;21.20;77.30;;;;;;5010595;28;20185;-62
2023/06/29 01:48:37;;;;;;;6.53;3.55;;;21.20;77.30;;;;;;5011034;28;20476;-62
2023/06/29 01:51:03;;;;;;;7.57;3.95;;;21.20;77.50;;;;;;5009407;28;20080;-62
2023/06/29 01:53:29;;;;;;;6.30;3.75;;;21.20;77.60;;;;;;5011296;28;20030;-64
2023/06/29 01:55:55;;;;;;;5.43;3.10;;;21.20;77.70;;;;;;5011342;28;20026;-64
2023/06/29 01:58:20;;;;;;;6.70;3.25;;;21.20;77.60;;;;;;5010072;28;20416;-64
2023/06/29 02:00:46;;;;;;;5.45;3.03;;;21.30;77.60;;;;;;5010815;28;20026;-63
2023/06/29 02:03:12;;;;;;;4.95;3.20;;;21.30;77.60;;;;;;5023663;28;20049;-64
2023/06/29 02:05:37;;;;;;;5.40;3.05;;;21.30;77.60;;;;;;5012877;28;20069;-64
2023/06/29 02:08:04;;;;;;;4.70;2.67;;;21.20;77.60;;;;;;5030877;28;20030;-64
2023/06/29 02:10:31;;;;;;;4.60;3.20;;;21.30;77.60;;;;;;5030539;28;20104;-63
2023/06/29 02:12:57;;;;;;;7.20;4.30;;;21.30;77.60;;;;;;5013324;28;20083;-64
2023/06/29 02:15:23;;;;;;;6.60;3.10;;;21.30;77.70;;;;;;5030516;28;20045;-64
2023/06/29 02:17:48;;;;;;;4.82;3.00;;;21.30;77.70;;;;;;5030578;28;20025;-64
2023/06/29 02:20:17;;;;;;;7.47;3.20;;;21.30;78.30;;;;;;5012294;28;20040;-63
2023/06/29 02:22:43;;;;;;;7.60;3.75;;;21.30;77.70;;;;;;5030586;28;20021;-63
2023/06/29 02:25:11;;;;;;;4.75;3.05;;;21.40;77.80;;;;;;5030540;28;20049;-64
2023/06/29 02:27:36;;;;;;;7.05;3.30;;;21.40;77.90;;;;;;5030315;28;20029;-64
2023/06/29 02:30:03;;;;;;;6.10;3.78;;;21.40;77.80;;;;;;5030389;28;20044;-64
2023/06/29 02:32:28;;;;;;;7.25;3.38;;;21.40;77.90;;;;;;5030078;28;20130;-64
2023/06/29 02:34:54;;;;;;;5.10;3.10;;;21.40;78.00;;;;;;5030175;28;20267;-64
2023/06/29 02:37:20;;;;;;;5.97;3.20;;;21.40;78.00;;;;;;5011794;28;20029;-64
2023/06/29 02:39:45;;;;;;;5.10;3.28;;;21.40;78.00;;;;;;5012557;28;20116;-64
2023/06/29 02:42:11;;;;;;;5.38;3.13;;;21.40;78.10;;;;;;5012744;28;20512;-64
2023/06/29 02:44:37;;;;;;;6.70;3.60;;;21.40;78.20;;;;;;5012652;28;20500;-63
2023/06/29 02:47:03;;;;;;;5.15;3.58;;;21.40;78.10;;;;;;5028845;28;20492;-64
2023/06/29 02:49:28;;;;;;;5.03;2.85;;;21.40;78.10;;;;;;5030024;28;20037;-64
2023/06/29 02:51:54;;;;;;;6.10;3.05;;;21.50;78.10;;;;;;5029560;28;20049;-63
2023/06/29 02:54:19;;;;;;;9.18;4.05;;;21.50;78.10;;;;;;5029595;28;20029;-63
2023/06/29 02:56:45;;;;;;;4.03;2.80;;;21.50;78.10;;;;;;5029532;28;20038;-62
2023/06/29 02:59:11;;;;;;;6.45;3.47;;;21.50;78.00;;;;;;5029537;28;20033;-63
2023/06/29 03:01:36;;;;;;;4.50;2.85;;;21.50;78.00;;;;;;5028538;28;20385;-63
2023/06/29 03:04:02;;;;;;;5.78;3.60;;;21.50;78.00;;;;;;5029346;28;20410;-62
2023/06/29 03:06:28;;;;;;;8.00;3.20;;;21.50;78.00;;;;;;5011291;28;20044;-63
2023/06/29 03:08:53;;;;;;;4.57;3.25;;;21.50;78.00;;;;;;5029374;28;20544;-63
2023/06/29 03:11:19;;;;;;;6.43;3.50;;;21.50;78.10;;;;;;5029004;28;20551;-62
2023/06/29 03:13:46;;;;;;;5.20;3.95;;;21.50;78.10;;;;;;5029274;28;20026;-62
2023/06/29 03:16:12;;;;;;;6.13;3.75;;;21.50;78.20;;;;;;5004697;28;20037;-63
2023/06/29 03:18:38;;;;;;;7.75;4.22;;;21.50;78.20;;;;;;5028611;28;20032;-62
2023/06/29 03:21:04;;;;;;;6.13;3.65;;;21.50;78.30;;;;;;5029078;28;20475;-62
2023/06/29 03:23:30;;;;;;;5.60;3.50;;;21.50;78.40;;;;;;5029227;28;20694;-62
2023/06/29 03:25:55;;;;;;;8.07;3.63;;;21.50;78.40;;;;;;5028895;28;20037;-62
2023/06/29 03:28:21;;;;;;;5.22;3.20;;;21.50;78.50;;;;;;5011226;28;20044;-63
2023/06/29 03:30:46;;;;;;;7.30;3.70;;;21.50;78.50;;;;;;5028927;28;20037;-63
2023/06/29 03:33:13;;;;;;;5.07;3.17;;;21.50;78.60;;;;;;5028218;28;20030;-62
2023/06/29 03:35:38;;;;;;;4.80;3.20;;;21.50;78.60;;;;;;5011516;28;20041;-63
2023/06/29 03:38:08;;;;;;;6.75;3.20;;;21.60;78.60;;;;;;5027758;28;20168;-64
2023/06/29 03:40:34;;;;;;;6.78;4.25;;;21.60;78.60;;;;;;5024020;28;20029;-63
2023/06/29 03:42:59;;;;;;;5.32;3.25;;;21.60;78.60;;;;;;5010602;28;20029;-63
2023/06/29 03:45:25;;;;;;;4.35;2.95;;;21.60;78.60;;;;;;5009513;28;20117;-63
2023/06/29 03:47:51;;;;;;;5.30;2.92;;;21.60;78.70;;;;;;5027508;28;20029;-63
2023/06/29 03:50:17;;;;;;;6.80;3.60;;;21.60;78.70;;;;;;5028687;28;20048;-63
2023/06/29 03:52:43;;;;;;;5.15;3.00;;;21.60;78.60;;;;;;5028561;28;20477;-63
2023/06/29 03:55:09;;;;;;;5.57;3.95;;;21.60;78.60;;;;;;5028730;28;20029;-63
2023/06/29 03:57:34;;;;;;;6.60;4.07;;;21.60;78.70;;;;;;5028895;28;20080;-62
2023/06/29 04:00:00;;;;;;;6.40;4.30;;;21.60;78.70;;;;;;5028888;28;20057;-66
2023/06/29 04:02:26;;;;;;;5.10;3.00;;;21.60;78.70;;;;;;5028431;28;20034;-64
2023/06/29 04:04:51;;;;;;;5.85;3.50;;;21.60;78.80;;;;;;5024659;28;20036;-64
2023/06/29 04:07:17;;;;;;;6.30;4.57;;;21.60;78.80;;;;;;5010535;28;20615;-64
2023/06/29 04:09:43;;;;;;;5.70;3.42;;;21.60;78.90;;;;;;5011548;28;20396;-64
2023/06/29 04:12:09;;;;;;;8.65;4.50;;;21.60;79.00;;;;;;5029127;28;20038;-64
2023/06/29 04:14:34;;;;;;;10.10;4.50;;;21.60;79.00;;;;;;5028599;28;20594;-63
2023/06/29 04:17:00;;;;;;;5.72;3.10;;;21.70;79.10;;;;;;5027794;28;20521;-64
2023/06/29 04:19:25;;;;;;;6.82;4.95;;;21.70;79.00;;;;;;5028888;28;20168;-64
2023/06/29 04:21:51;;;;;;;6.43;4.00;;;21.70;79.10;;;;;;5010170;28;20080;-64
2023/06/29 04:24:17;;;;;;;7.25;4.20;;;21.70;79.10;;;;;;5028503;28;20025;-64
2023/06/29 04:26:43;;;;;;;7.70;3.35;;;21.70;79.00;;;;;;5027339;28;20040;-64
2023/06/29 04:29:09;;;;;;;6.95;4.38;;;21.70;79.00;;;;;;4993449;28;20232;-64
2023/06/29 04:31:35;;;;;;;6.70;3.60;;;21.70;78.90;;;;;;5022792;28;20037;-63
2023/06/29 04:34:02;;;;;;;10.02;5.18;;;21.80;79.00;;;;;;5011496;28;20029;-64
2023/06/29 04:36:28;;;;;;;8.75;4.68;;;21.80;79.00;;;;;;5030113;28;20042;-64
2023/06/29 04:38:54;;;;;;;4.72;3.58;;;21.80;79.00;;;;;;5032371;28;20034;-64
2023/06/29 04:41:31;;;;;;;6.03;3.60;;;21.80;79.00;;;;;;5032214;28;20025;-64
2023/06/29 04:44:00;;;;;;;11.88;5.35;;;21.90;79.00;;;;;;5031999;28;20025;-64
2023/06/29 04:46:30;;;;;;;6.47;4.63;;;21.90;79.00;;;;;;5031741;28;20452;-64
2023/06/29 04:48:56;;;;;;;6.53;4.47;;;21.90;79.10;;;;;;5030569;28;20025;-64
2023/06/29 04:51:22;;;;;;;7.93;5.05;;;21.80;79.10;;;;;;5031876;28;20104;-64
2023/06/29 04:53:47;;;;;;;6.40;3.95;;;21.80;79.10;;;;;;5032224;28;20143;-64
2023/06/29 04:56:13;;;;;;;7.93;4.30;;;21.90;79.20;;;;;;5030207;28;20397;-64
2023/06/29 04:58:39;;;;;;;6.10;4.15;;;21.90;79.20;;;;;;5032259;28;20038;-64
2023/06/29 05:01:05;;;;;;;6.90;3.92;;;22.00;79.20;;;;;;5031036;28;20487;-62
2023/06/29 05:03:31;;;;;;;5.03;3.55;;;22.00;79.20;;;;;;5029014;28;20057;-63
2023/06/29 05:05:57;;;;;;;6.00;3.97;;;22.00;79.10;;;;;;5029589;28;20029;-63
2023/06/29 05:08:23;;;;;;;8.77;5.13;;;22.00;79.00;;;;;;5031520;28;20056;-62
2023/06/29 05:10:49;;;;;;;7.22;4.15;;;22.00;79.70;;;;;;5013313;28;20079;-63
2023/06/29 05:13:14;;;;;;;8.30;4.03;;;22.00;79.10;;;;;;5031879;28;20164;-64
2023/06/29 05:15:40;;;;;;;6.88;3.50;;;22.10;79.10;;;;;;5031180;28;20112;-65
2023/06/29 05:18:05;;;;;;;7.95;4.35;;;22.10;79.10;;;;;;5031265;28;20029;-64
2023/06/29 05:20:31;;;;;;;7.95;4.20;;;22.10;79.10;;;;;;5031693;28;20032;-64
2023/06/29 05:22:57;;;;;;;6.28;3.72;;;22.10;79.10;;;;;;5031595;28;20040;-64
2023/06/29 05:25:23;;;;;;;8.40;4.32;;;22.10;79.00;;;;;;5031115;28;20372;-64
2023/06/29 05:27:48;;;;;;;6.55;3.65;;;22.20;79.00;;;;;;5031172;28;20092;-62
2023/06/29 05:30:16;;;;;;;7.75;3.92;;;22.20;78.90;;;;;;5013381;28;20053;-63
2023/06/29 05:32:42;;;;;;;8.13;4.82;;;22.20;78.90;;;;;;5012856;28;20064;-63
2023/06/29 05:35:07;;;;;;;5.43;3.03;;;22.20;79.00;;;;;;5029310;28;20084;-63
2023/06/29 05:37:33;;;;;;;6.45;3.90;;;22.20;79.00;;;;;;5030861;28;20386;-62
2023/06/29 05:39:59;;;;;;;8.25;5.07;;;22.20;79.00;;;;;;5012901;28;20154;-62
2023/06/29 05:42:25;;;;;;;7.05;4.25;;;22.20;78.90;;;;;;5030969;28;20033;-62
2023/06/29 05:44:50;;;;;;;7.07;4.22;;;22.30;79.00;;;;;;5029878;28;20037;-63
2023/06/29 05:47:17;;;;;;;8.40;4.93;;;22.30;78.90;;;;;;5029393;28;20033;-63
2023/06/29 05:49:43;;;;;;;6.20;4.57;;;22.30;78.90;;;;;;5030949;28;20347;-63
2023/06/29 05:52:09;;;;;;;10.60;5.53;;;22.40;78.90;;;;;;5012928;28;20037;-63
2023/06/29 05:54:34;;;;;;;8.68;5.22;;;22.40;78.80;;;;;;5012660;28;20760;-63
2023/06/29 05:57:00;;;;;;;8.10;4.78;;;22.50;78.70;;;;;;5026920;28;20025;-62
2023/06/29 05:59:26;;;;;;;9.45;4.38;;;22.60;78.60;;;;;;5030616;28;20108;-63
2023/06/29 06:01:51;;;;;;;8.15;4.72;;;22.60;78.50;;;;;;5030139;28;20022;-63
2023/06/29 06:04:17;;;;;;;10.52;4.57;;;22.60;78.40;;;;;;5012918;28;20132;-64
2023/06/29 06:06:43;;;;;;;10.30;5.15;;;22.60;78.30;;;;;;5030434;28;20110;-63
2023/06/29 06:09:08;;;;;;;9.20;4.88;;;22.70;78.20;;;;;;4992796;28;20179;-62
2023/06/29 06:11:34;;;;;;;8.30;4.47;;;22.80;78.20;;;;;;5030451;28;20038;-64
2023/06/29 06:13:59;;;;;;;7.40;4.60;;;22.80;78.10;;;;;;5030418;28;20030;-64
2023/06/29 06:16:25;;;;;;;6.85;3.95;;;22.90;78.10;;;;;;5029979;28;20025;-64
2023/06/29 06:18:51;;;;;;;9.90;5.13;;;22.90;77.90;;;;;;5012844;28;20026;-64
2023/06/29 06:21:16;;;;;;;9.70;4.57;;;22.90;77.70;;;;;;5012852;28;20037;-65
2023/06/29 06:23:42;;;;;;;10.63;4.97;;;22.90;77.50;;;;;;5030019;28;20032;-62
2023/06/29 06:26:08;;;;;;;8.13;4.25;;;22.90;77.50;;;;;;5029946;28;20046;-62
2023/06/29 06:28:33;;;;;;;7.90;4.47;;;22.90;77.60;;;;;;5029918;28;20029;-63
2023/06/29 06:30:59;;;;;;;14.98;6.20;;;23.00;77.60;;;;;;5030143;28;20444;-63
2023/06/29 06:33:30;;;;;;;12.02;4.90;;;22.90;77.40;;;;;;5029159;28;20041;-62
2023/06/29 06:35:56;;;;;;;7.78;4.63;;;22.90;77.50;;;;;;5027762;28;20037;-63
2023/06/29 06:38:21;;;;;;;11.73;5.78;;;22.90;77.60;;;;;;5028402;28;20061;-63
2023/06/29 06:40:47;;;;;;;8.40;4.35;;;22.80;77.30;;;;;;5029838;28;20512;-64
2023/06/29 06:43:15;;;;;;;8.77;4.78;;;22.80;77.50;;;;;;5027090;28;20030;-64
2023/06/29 06:45:40;;;;;;;9.93;5.47;;;22.80;77.50;;;;;;5012908;28;20033;-64
2023/06/29 06:48:06;;;;;;;6.68;4.18;;;22.80;77.60;;;;;;5012058;28;20037;-63
2023/06/29 06:50:32;;;;;;;8.02;4.57;;;22.80;77.60;;;;;;5030218;28;20087;-64
2023/06/29 06:52:57;;;;;;;9.75;4.35;;;22.80;77.50;;;;;;5029649;28;20026;-64
2023/06/29 06:55:23;;;;;;;8.18;4.55;;;22.80;77.40;;;;;;5029945;28;20516;-63
2023/06/29 06:57:49;;;;;;;7.40;4.40;;;22.80;77.30;;;;;;5029374;28;20415;-62
2023/06/29 07:00:15;;;;;;;7.68;4.70;;;22.90;77.20;;;;;;5026076;28;20025;-63
2023/06/29 07:02:40;;;;;;;8.75;4.22;;;22.90;77.00;;;;;;5010685;28;20021;-63
2023/06/29 07:05:06;;;;;;;8.75;4.78;;;23.00;76.90;;;;;;5026341;28;20413;-63
2023/06/29 07:07:32;;;;;;;10.48;5.13;;;23.10;76.50;;;;;;5029111;28;20057;-64
2023/06/29 07:09:58;;;;;;;8.00;4.70;;;23.10;76.10;;;;;;5025205;28;20075;-64
2023/06/29 07:12:24;;;;;;;10.32;4.70;;;23.20;75.90;;;;;;5028537;28;20048;-64
2023/06/29 07:14:50;;;;;;;10.80;4.25;;;23.20;75.80;;;;;;5011390;28;20030;-64
2023/06/29 07:17:16;;;;;;;10.50;4.90;;;23.20;75.40;;;;;;5011263;28;20621;-64
2023/06/29 07:19:41;;;;;;;12.88;6.05;;;23.20;75.20;;;;;;5029827;28;20556;-64
2023/06/29 07:22:07;;;;;;;8.82;5.22;;;23.30;74.70;;;;;;5027092;28;20064;-64
2023/06/29 07:24:33;;;;;;;16.60;5.40;;;23.30;74.80;;;;;;5012251;28;20030;-64
2023/06/29 07:26:59;;;;;;;10.13;5.18;;;23.30;74.60;;;;;;5028795;28;20045;-64
2023/06/29 07:29:25;;;;;;;10.10;5.50;;;23.30;74.40;;;;;;5029052;28;20033;-64
2023/06/29 07:31:50;;;;;;;15.73;6.68;;;23.30;73.90;;;;;;5009159;28;20566;-63
2023/06/29 07:34:19;;;;;;;8.52;4.80;;;23.30;73.60;;;;;;5005389;28;20037;-64
2023/06/29 07:36:44;;;;;;;9.93;4.90;;;23.30;73.50;;;;;;5006406;28;20053;-64
2023/06/29 07:39:10;;;;;;;9.55;4.35;;;23.30;73.60;;;;;;5027952;28;20481;-64
2023/06/29 07:41:35;;;;;;;8.00;4.35;;;23.40;73.50;;;;;;5028546;28;20554;-64
2023/06/29 07:44:01;;;;;;;10.48;5.28;;;23.40;73.10;;;;;;5028304;28;20465;-64
2023/06/29 07:46:27;;;;;;;11.18;5.60;;;23.50;73.10;;;;;;5027700;28;20167;-63
2023/06/29 07:48:54;;;;;;;12.75;6.78;;;23.60;72.60;;;;;;5026403;28;20026;-61
2023/06/29 07:51:21;;;;;;;9.05;5.80;;;23.60;72.30;;;;;;5026670;28;20424;-63
2023/06/29 07:53:47;;;;;;;8.02;4.40;;;23.50;71.90;;;;;;5024260;28;20270;-63
2023/06/29 07:56:12;;;;;;;8.05;4.07;;;23.50;72.00;;;;;;5027559;28;20502;-63
2023/06/29 07:58:38;;;;;;;7.97;4.50;;;23.60;71.90;;;;;;5007843;28;20579;-63
2023/06/29 08:01:04;;;;;;;9.18;4.95;;;23.50;71.60;;;;;;5027347;28;20045;-65
2023/06/29 08:03:29;;;;;;;8.60;4.68;;;23.50;71.60;;;;;;5026266;28;20056;-64
2023/06/29 08:05:56;;;;;;;9.88;3.75;;;23.50;71.80;;;;;;5026181;28;20037;-64
2023/06/29 08:08:21;;;;;;;6.60;3.08;;;23.50;72.70;;;;;;5026171;28;20128;-64
2023/06/29 08:10:48;;;;;;;10.10;4.72;;;23.60;72.10;;;;;;5031140;28;20231;-64
2023/06/29 08:13:15;;;;;;;11.30;5.03;;;23.70;71.70;;;;;;5011601;28;20021;-65
2023/06/29 08:15:40;;;;;;;8.73;4.47;;;23.70;71.20;;;;;;5030272;28;20056;-65
2023/06/29 08:18:06;;;;;;;11.82;5.55;;;23.70;71.10;;;;;;5031069;28;20107;-63
2023/06/29 08:20:32;;;;;;;7.45;4.78;;;23.70;71.00;;;;;;5028873;28;20026;-63
2023/06/29 08:22:57;;;;;;;10.85;4.35;;;23.80;71.00;;;;;;5013365;28;20021;-63
2023/06/29 08:25:23;;;;;;;8.02;4.60;;;23.90;71.00;;;;;;5030483;28;20042;-63
2023/06/29 08:27:49;;;;;;;10.48;5.32;;;24.00;71.00;;;;;;5027492;28;20818;-62
2023/06/29 08:30:16;;;;;;;8.60;4.45;;;24.10;70.50;;;;;;5026621;28;20041;-62
2023/06/29 08:32:43;;;;;;;9.93;5.60;;;24.10;70.00;;;;;;5030919;28;20485;-62
2023/06/29 08:35:08;;;;;;;6.93;4.50;;;24.20;70.00;;;;;;5030203;28;20029;-61
2023/06/29 08:37:34;;;;;;;8.75;4.28;;;24.30;70.00;;;;;;5031668;28;20065;-62
2023/06/29 08:40:00;;;;;;;7.78;3.78;;;24.40;69.80;;;;;;5029990;28;20021;-62
2023/06/29 08:42:26;;;;;;;8.82;3.83;;;24.50;69.60;;;;;;5030476;28;20026;-63
2023/06/29 08:44:53;;;;;;;6.90;4.03;;;24.60;69.40;;;;;;5030284;28;20029;-61
2023/06/29 08:47:19;;;;;;;9.65;3.90;;;24.70;69.30;;;;;;5030694;28;20077;-61
2023/06/29 08:49:46;;;;;;;5.47;3.60;;;24.90;68.90;;;;;;5030175;28;20118;-62
2023/06/29 08:52:15;;;;;;;8.90;4.88;;;25.00;68.60;;;;;;5030439;28;20539;-61
2023/06/29 08:54:42;;;;;;;7.30;3.85;;;25.00;68.10;;;;;;5027321;28;20402;-62
2023/06/29 08:57:09;;;;;;;10.25;6.07;;;25.10;67.70;;;;;;5031163;28;20033;-63
2023/06/29 08:59:38;;;;;;;11.70;4.55;;;25.20;67.10;;;;;;5012396;28;20053;-62
2023/06/29 09:02:05;;;;;;;8.35;4.47;;;25.30;67.10;;;;;;5029921;28;20060;-62
2023/06/29 09:04:31;;;;;;;8.85;4.47;;;25.30;65.70;;;;;;4990837;28;20038;-62
2023/06/29 09:06:57;;;;;;;8.25;3.97;;;25.30;65.30;;;;;;4991210;28;20042;-63
2023/06/29 09:09:23;;;;;;;9.70;5.05;;;25.50;65.30;;;;;;4989939;28;20038;-63
2023/06/29 09:11:49;;;;;;;7.55;4.18;;;25.60;64.80;;;;;;4985878;28;20109;-63
2023/06/29 09:14:15;;;;;;;8.00;4.35;;;25.60;64.90;;;;;;4989926;28;20500;-63
2023/06/29 09:16:53;;;;;;;13.15;5.43;;;25.60;64.40;;;;;;4985867;28;20069;-63
2023/06/29 09:19:19;;;;;;;8.90;4.85;;;25.60;63.70;;;;;;4983879;28;20050;-64
2023/06/29 09:21:47;;;;;;;8.63;4.63;;;25.60;63.60;;;;;;4990964;28;20382;-63
2023/06/29 09:24:14;;;;;;;12.05;4.88;;;25.50;63.50;;;;;;4990708;28;20034;-63
2023/06/29 09:26:40;;;;;;;9.05;3.95;;;25.40;63.30;;;;;;4990663;28;20034;-63
2023/06/29 09:29:06;;;;;;;12.65;6.43;;;25.40;63.70;;;;;;4989944;28;20045;-64
2023/06/29 09:31:35;;;;;;;10.65;4.47;;;25.40;63.30;;;;;;4991869;28;20030;-64
2023/06/29 09:34:21;;;;;;;5.93;3.80;;;25.40;63.50;;;;;;4990114;28;20148;-64
2023/06/29 09:36:48;;;;;;;7.50;3.88;;;25.60;63.90;;;;;;4988063;28;20629;-64
2023/06/29 09:39:14;;;;;;;6.60;4.18;;;25.80;63.80;;;;;;4991530;28;20026;-63
2023/06/29 09:41:51;;;;;;;10.88;4.63;;;25.90;63.00;;;;;;4991821;28;20022;-64
2023/06/29 09:44:21;;;;;;;8.23;3.95;;;25.90;62.80;;;;;;4991646;28;20022;-63
2023/06/29 09:47:02;;;;;;;10.50;3.80;;;26.10;63.10;;;;;;4988276;28;20030;-63
2023/06/29 09:49:29;;;;;;;9.90;3.97;;;26.20;63.00;;;;;;4990357;28;20034;-64
2023/06/29 09:52:04;;;;;;;8.15;4.03;;;26.40;62.10;;;;;;4988643;28;20043;-64
2023/06/29 09:54:37;;;;;;;6.57;3.22;;;26.30;61.20;;;;;;4989123;28;20026;-63
2023/06/29 09:57:03;;;;;;;8.38;4.22;;;26.40;61.70;;;;;;4989944;28;20030;-62
2023/06/29 09:59:33;;;;;;;12.68;5.00;;;26.40;61.40;;;;;;4990043;28;20034;-62
2023/06/29 10:01:59;;;;;;;10.27;4.40;;;26.60;61.40;;;;;;4984958;28;20046;-62
2023/06/29 10:04:25;;;;;;;7.40;3.58;;;26.70;61.10;;;;;;4991831;28;20058;-62
2023/06/29 10:07:08;;;;;;;6.78;3.65;;;26.80;60.60;;;;;;4990417;28;20512;-62
2023/06/29 10:09:44;;;;;;;5.30;3.45;;;26.90;60.90;;;;;;4988379;28;20045;-62
2023/06/29 10:12:10;;;;;;;6.25;3.30;;;26.90;60.80;;;;;;4987975;28;20038;-62
2023/06/29 10:14:44;;;;;;;8.65;4.43;;;27.00;60.60;;;;;;4988930;28;20038;-62
2023/06/29 10:17:30;;;;;;;9.18;4.25;;;27.00;60.40;;;;;;4988931;28;20033;-62
2023/06/29 10:19:57;;;;;;;8.75;4.45;;;27.10;60.60;;;;;;4989321;28;20106;-62
2023/06/29 10:22:25;;;;;;;8.30;4.43;;;27.10;60.10;;;;;;4988046;28;20031;-62
2023/06/29 10:24:52;;;;;;;6.00;3.85;;;27.00;59.10;;;;;;4986243;28;20057;-63
2023/06/29 10:27:20;;;;;;;7.63;4.10;;;26.80;59.30;;;;;;4986712;28;20158;-62
2023/06/29 10:29:48;;;;;;;9.68;4.85;;;26.60;58.90;;;;;;4985626;28;20488;-62
2023/06/29 10:32:34;;;;;;;8.75;4.57;;;26.40;58.60;;;;;;4988738;28;20442;-62
2023/06/29 10:35:12;;;;;;;8.18;4.28;;;26.30;59.10;;;;;;4987582;28;20441;-64
2023/06/29 10:37:43;;;;;;;6.90;3.75;;;26.20;59.30;;;;;;4986852;28;20038;-64
2023/06/29 10:40:16;;;;;;;10.82;4.70;;;26.30;59.90;;;;;;4989337;28;20105;-63
2023/06/29 10:42:41;;;;;;;10.07;3.80;;;26.40;59.70;;;;;;4984645;28;20026;-62
2023/06/29 10:45:20;;;;;;;9.13;4.07;;;26.70;59.50;;;;;;4987814;28;20503;-64
2023/06/29 10:47:59;;;;;;;8.23;4.43;;;26.90;59.30;;;;;;4991231;28;20426;-64
2023/06/29 10:50:51;;;;;;;7.50;3.97;;;27.30;58.90;;;;;;4987761;28;20556;-64
2023/06/29 10:53:20;;;;;;;6.15;4.20;;;27.40;58.60;;;;;;4980704;28;20807;-63
2023/06/29 10:55:51;;;;;;;6.28;3.60;;;27.40;58.30;;;;;;4990182;28;20457;-64
2023/06/29 10:58:22;;;;;;;7.55;3.92;;;27.30;57.70;;;;;;4989163;28;20113;-63
2023/06/29 11:00:51;;;;;;;6.35;3.38;;;27.40;57.40;;;;;;4987591;28;20366;-64
2023/06/29 11:03:17;;;;;;;5.40;3.47;;;27.40;57.20;;;;;;4961440;28;1121957;-64
2023/06/29 11:05:47;;;;;;;9.68;4.00;;;27.50;56.80;;;;;;5029275;28;20223;-63
2023/06/29 11:08:13;;;;;;;12.07;3.65;;;27.60;56.60;;;;;;5024825;28;20124;-64
2023/06/29 11:10:39;;;;;;;10.20;3.90;;;27.40;56.50;;;;;;5026627;28;20549;-63
2023/06/29 11:13:09;;;;;;;9.43;3.97;;;27.30;56.70;;;;;;5028635;28;20112;-64
2023/06/29 11:15:35;;;;;;;6.60;3.50;;;27.20;56.20;;;;;;5026135;28;20396;-64
2023/06/29 11:18:06;;;;;;;7.30;3.90;;;27.20;56.30;;;;;;5028411;28;20025;-64
2023/06/29 11:20:33;;;;;;;5.13;3.00;;;27.20;56.90;;;;;;5012252;28;20052;-64
2023/06/29 11:23:00;;;;;;;8.80;4.18;;;27.10;56.90;;;;;;5028733;28;20492;-63
2023/06/29 11:25:27;;;;;;;6.75;3.60;;;27.10;56.70;;;;;;5010340;28;20488;-64
2023/06/29 11:27:53;;;;;;;7.35;3.65;;;27.00;56.80;;;;;;5026806;28;20049;-64
2023/06/29 11:30:20;;;;;;;5.93;3.40;;;27.00;56.90;;;;;;5028931;28;20144;-63
2023/06/29 11:32:52;;;;;;;8.20;3.58;;;27.00;55.60;;;;;;5027233;28;20511;-64
2023/06/29 11:35:22;;;;;;;7.15;3.88;;;26.90;55.10;;;;;;5028047;28;20091;-65
2023/06/29 11:37:56;;;;;;;8.35;3.90;;;26.80;55.00;;;;;;5028439;28;20029;-62
2023/06/29 11:40:23;;;;;;;6.90;3.47;;;26.90;55.50;;;;;;5028249;28;20033;-62
2023/06/29 11:42:50;;;;;;;9.15;4.47;;;27.00;55.00;;;;;;5027767;28;20030;-61
2023/06/29 11:45:19;;;;;;;10.10;4.53;;;27.00;54.20;;;;;;5026906;28;20044;-62
2023/06/29 11:47:50;;;;;;;8.88;4.20;;;27.00;54.30;;;;;;5004289;28;20068;-62
2023/06/29 11:50:17;;;;;;;9.88;4.75;;;27.00;54.70;;;;;;5028196;28;20033;-62
2023/06/29 11:52:44;;;;;;;6.43;3.60;;;27.10;55.00;;;;;;5027351;28;20481;-63
2023/06/29 11:55:12;;;;;;;9.95;4.97;;;27.20;54.70;;;;;;5026283;28;20033;-61
2023/06/29 11:57:40;;;;;;;9.13;5.50;;;27.20;53.90;;;;;;5008373;28;20033;-62
2023/06/29 12:00:29;;;;;;;7.70;4.38;;;27.20;54.00;;;;;;5024670;28;20634;-62
2023/06/29 12:02:54;;;;;;;12.57;5.68;;;27.30;54.20;;;;;;5027179;28;20040;-61
2023/06/29 12:05:27;;;;;;;11.55;4.80;;;27.40;54.50;;;;;;5026571;28;20686;-61
2023/06/29 12:07:52;;;;;;;10.80;5.40;;;27.70;54.90;;;;;;5027858;28;20041;-63
2023/06/29 12:10:22;;;;;;;10.75;4.80;;;27.90;54.00;;;;;;5023477;28;20036;-64
2023/06/29 12:12:56;;;;;;;8.75;4.25;;;28.00;54.20;;;;;;5028101;28;20033;-63
2023/06/29 12:15:26;;;;;;;9.77;5.65;;;28.10;54.20;;;;;;5027219;28;20044;-63
2023/06/29 12:17:58;;;;;;;10.00;4.70;;;28.20;55.10;;;;;;5023673;28;20022;-63
2023/06/29 12:20:24;;;;;;;11.25;4.70;;;28.30;53.70;;;;;;5010584;28;20061;-61
2023/06/29 12:22:55;;;;;;;9.93;5.57;;;28.30;53.40;;;;;;5009886;28;20483;-63
2023/06/29 12:25:21;;;;;;;9.95;3.90;;;28.20;53.00;;;;;;5010629;28;20029;-64
2023/06/29 12:27:48;;;;;;;11.20;5.28;;;28.10;53.50;;;;;;5028069;28;20044;-62
2023/06/29 12:30:20;;;;;;;8.15;4.55;;;27.90;53.50;;;;;;5028135;28;20029;-64
2023/06/29 12:32:47;;;;;;;7.90;4.28;;;27.80;54.10;;;;;;5027714;28;20439;-63
2023/06/29 12:35:14;;;;;;;12.55;4.78;;;27.80;54.50;;;;;;5027609;28;20042;-64
2023/06/29 12:37:39;;;;;;;9.68;5.05;;;27.80;54.30;;;;;;5010602;28;20028;-63
2023/06/29 12:40:06;;;;;;;9.32;5.07;;;27.80;54.70;;;;;;5009883;28;20112;-63
2023/06/29 12:42:32;;;;;;;11.82;5.75;;;27.80;54.90;;;;;;5028020;28;20048;-63
2023/06/29 12:45:02;;;;;;;13.05;4.78;;;27.90;54.90;;;;;;5026732;28;20025;-62